Time;durP1;ratioP1;P1;durP2;ratioP2;P2;SDS_P1;SDS_P2;PMS_P1;PMS_P2;Temp;Humidity;BMP_temperature;BMP_pressure;BME280_temperature;BME280_humidity;BME280_pressure;Samples;Min_cycle;Max_cycle;Signal;HPM_P1;HPM_P2
2021/10/16 00:00:00;;;;;;;6.20;3.83;;;;;;;3.81;97.53;101507.16;686668;28;3926;-58
2021/10/16 00:00:21;;;;;;;6.20;3.87;;;;;;;3.79;96.58;101501.03;687451;28;1018;-56
2021/10/16 00:00:41;;;;;;;5.77;3.93;;;;;;;3.84;97.09;101503.81;686873;28;1258;-54
2021/10/16 00:01:01;;;;;;;6.23;4.10;;;;;;;3.96;96.98;101503.34;687127;28;1064;-56
2021/10/16 00:01:22;;;;;;;6.50;4.20;;;;;;;4.00;96.35;101503.53;685968;28;1120;-54
2021/10/16 00:01:42;;;;;;;5.95;3.97;;;;;;;4.02;96.01;101504.47;685833;28;1983;-56
2021/10/16 00:02:03;;;;;;;5.50;3.93;;;;;;;4.02;95.03;101499.28;686874;28;5199;-56
2021/10/16 00:02:25;;;;;;;5.88;4.10;;;;;;;4.01;95.23;101505.28;685217;28;2527;-57
2021/10/16 00:02:47;;;;;;;5.68;3.88;;;;;;;4.03;95.31;101494.97;685562;28;2340;-57
2021/10/16 00:03:07;;;;;;;5.22;3.72;;;;;;;4.03;95.17;101503.63;686816;28;997;-57
2021/10/16 00:03:28;;;;;;;5.65;4.15;;;;;;;4.01;95.44;101494.94;684264;28;1240;-56
2021/10/16 00:03:48;;;;;;;6.17;4.20;;;;;;;3.95;95.41;101504.19;685016;28;1218;-56
2021/10/16 00:04:09;;;;;;;6.28;4.78;;;;;;;3.94;95.61;101508.47;684831;28;1077;-55
2021/10/16 00:04:29;;;;;;;6.80;4.67;;;;;;;3.97;96.04;101505.13;684525;28;1069;-57
2021/10/16 00:04:49;;;;;;;7.05;4.47;;;;;;;3.91;95.08;101508.38;684969;28;1013;-57
2021/10/16 00:05:10;;;;;;;6.40;4.57;;;;;;;3.82;95.91;101503.75;681685;28;4482;-57
2021/10/16 00:05:30;;;;;;;6.13;4.45;;;;;;;3.75;96.36;101502.66;678840;28;2512;-55
2021/10/16 00:05:51;;;;;;;6.33;4.40;;;;;;;3.72;96.81;101505.13;681345;28;2198;-52
2021/10/16 00:06:12;;;;;;;6.20;4.38;;;;;;;3.67;96.43;101496.31;681509;28;1467;-54
2021/10/16 00:06:32;;;;;;;5.75;4.28;;;;;;;3.68;96.96;101495.50;681006;28;1129;-56
2021/10/16 00:06:52;;;;;;;5.97;4.20;;;;;;;3.71;96.40;101499.88;684410;28;1205;-56
2021/10/16 00:07:13;;;;;;;6.43;4.50;;;;;;;3.66;96.97;101499.72;687220;28;1049;-53
2021/10/16 00:07:34;;;;;;;6.38;4.47;;;;;;;3.61;97.02;101502.97;686010;28;1073;-57
2021/10/16 00:07:54;;;;;;;7.90;4.50;;;;;;;3.60;97.18;101502.09;686421;28;1250;-57
2021/10/16 00:08:15;;;;;;;6.80;4.30;;;;;;;3.60;96.53;101502.09;685629;28;5943;-56
2021/10/16 00:08:35;;;;;;;6.55;4.43;;;;;;;3.58;96.75;101498.56;686246;28;3224;-54
2021/10/16 00:08:55;;;;;;;6.03;4.60;;;;;;;3.63;97.16;101498.72;686124;28;4275;-56
2021/10/16 00:09:16;;;;;;;5.60;4.38;;;;;;;3.68;97.25;101498.09;687399;28;1484;-55
2021/10/16 00:09:36;;;;;;;5.73;4.20;;;;;;;3.72;96.72;101501.66;684526;28;1357;-54
2021/10/16 00:09:56;;;;;;;6.18;4.18;;;;;;;3.81;97.10;101504.56;683716;28;1048;-56
2021/10/16 00:10:17;;;;;;;6.40;4.30;;;;;;;3.84;96.13;101501.22;683885;28;1133;-54
2021/10/16 00:10:41;;;;;;;5.72;4.25;;;;;;;3.86;95.86;101504.72;682633;28;1198;-56
2021/10/16 00:11:01;;;;;;;6.38;4.40;;;;;;;3.94;95.15;101502.44;684388;28;5862;-57
2021/10/16 00:11:21;;;;;;;6.07;4.07;;;;;;;3.99;95.41;101506.94;683627;28;1358;-57
2021/10/16 00:11:42;;;;;;;5.97;3.97;;;;;;;3.99;95.00;101500.88;686479;28;1941;-57
2021/10/16 00:12:03;;;;;;;6.50;4.00;;;;;;;3.94;94.79;101505.88;685474;28;1275;-56
2021/10/16 00:12:24;;;;;;;5.82;3.97;;;;;;;3.93;95.17;101504.13;687557;28;1503;-56
2021/10/16 00:12:44;;;;;;;5.55;3.85;;;;;;;3.93;95.90;101504.13;687067;28;1298;-56
2021/10/16 00:13:05;;;;;;;5.60;3.97;;;;;;;3.94;95.41;101503.31;683774;28;1299;-57
2021/10/16 00:13:25;;;;;;;5.40;3.60;;;;;;;3.89;94.99;101504.84;683935;28;1164;-55
2021/10/16 00:13:45;;;;;;;5.33;3.60;;;;;;;3.88;95.37;101501.38;683745;28;1069;-56
2021/10/16 00:14:06;;;;;;;5.68;4.03;;;;;;;3.93;95.90;101501.53;682927;28;5343;-53
2021/10/16 00:14:26;;;;;;;6.00;4.03;;;;;;;3.96;95.52;101501.66;684237;28;1287;-55
2021/10/16 00:14:46;;;;;;;7.00;3.78;;;;;;;3.99;95.92;101500.88;682736;28;3570;-56
2021/10/16 00:15:07;;;;;;;5.83;3.80;;;;;;;4.03;95.28;101502.75;685738;28;3504;-57
2021/10/16 00:15:28;;;;;;;5.32;3.70;;;;;;;4.07;95.52;101505.50;687346;28;1101;-54
2021/10/16 00:15:49;;;;;;;5.88;3.50;;;;;;;4.09;95.02;101500.38;686350;28;1082;-58
2021/10/16 00:16:09;;;;;;;6.57;3.70;;;;;;;4.06;94.49;101506.31;686430;28;1125;-58
2021/10/16 00:16:30;;;;;;;5.90;3.47;;;;;;;4.01;95.29;101507.00;685799;28;998;-55
2021/10/16 00:16:50;;;;;;;6.00;3.40;;;;;;;3.98;95.49;101505.19;686269;28;997;-56
2021/10/16 00:17:10;;;;;;;5.53;3.80;;;;;;;3.98;95.52;101506.88;685328;28;5497;-57
2021/10/16 00:17:31;;;;;;;5.53;3.90;;;;;;;3.98;95.12;101504.31;681349;28;1346;-54
2021/10/16 00:17:51;;;;;;;5.40;3.70;;;;;;;3.98;94.99;101504.31;681922;28;3386;-57
2021/10/16 00:18:14;;;;;;;6.23;3.80;;;;;;;3.91;95.21;101511.84;680296;28;3569;-58
2021/10/16 00:18:35;;;;;;;6.10;3.60;;;;;;;3.91;96.10;101505.78;681526;28;1138;-56
2021/10/16 00:18:56;;;;;;;5.10;3.40;;;;;;;3.98;95.83;101510.34;678832;28;1083;-56
2021/10/16 00:19:16;;;;;;;4.95;3.33;;;;;;;4.06;95.25;101508.06;678762;28;1170;-55
2021/10/16 00:19:38;;;;;;;5.28;3.30;;;;;;;4.04;95.62;101508.00;680578;28;1145;-57
2021/10/16 00:19:58;;;;;;;5.00;3.50;;;;;;;4.03;95.44;101507.91;680392;28;4833;-56
2021/10/16 00:20:19;;;;;;;5.60;3.50;;;;;;;4.01;95.25;101504.41;680179;28;1295;-57
2021/10/16 00:20:40;;;;;;;5.90;3.75;;;;;;;4.00;95.37;101508.72;678691;29;1069;-57
2021/10/16 00:21:02;;;;;;;5.38;3.75;;;;;;;3.98;95.87;101510.34;679630;28;2630;-55
2021/10/16 00:21:23;;;;;;;7.10;3.63;;;;;;;4.02;95.46;101504.47;679678;28;2383;-57
2021/10/16 00:21:43;;;;;;;5.63;3.38;;;;;;;3.95;95.00;101515.41;680028;28;1941;-57
2021/10/16 00:22:04;;;;;;;6.43;3.60;;;;;;;3.93;95.04;101504.13;681599;28;1121;-57
2021/10/16 00:22:25;;;;;;;6.28;3.67;;;;;;;4.00;95.54;101508.72;683127;28;1078;-56
2021/10/16 00:22:45;;;;;;;5.78;3.60;;;;;;;4.08;95.09;101509.88;684898;28;1369;-54
2021/10/16 00:23:06;;;;;;;5.47;3.53;;;;;;;4.11;95.31;101508.19;684520;28;4810;-56
2021/10/16 00:23:27;;;;;;;5.00;3.38;;;;;;;4.09;95.04;101511.59;684738;28;1042;-55
2021/10/16 00:23:48;;;;;;;5.45;3.35;;;;;;;4.05;94.95;101508.88;683488;28;1239;-54
2021/10/16 00:24:08;;;;;;;5.83;3.33;;;;;;;4.03;95.65;101505.31;684264;28;3199;-56
2021/10/16 00:24:30;;;;;;;5.03;3.45;;;;;;;4.01;95.82;101505.28;684464;28;3247;-56
2021/10/16 00:24:50;;;;;;;5.10;3.38;;;;;;;3.98;95.29;101505.19;683075;28;1064;-58
2021/10/16 00:25:11;;;;;;;4.97;3.57;;;;;;;4.02;95.26;101513.94;682974;28;1250;-54
2021/10/16 00:25:31;;;;;;;5.37;3.57;;;;;;;3.97;94.80;101511.16;685881;28;1109;-57
2021/10/16 00:25:51;;;;;;;6.78;3.60;;;;;;;4.00;95.35;101511.31;686931;28;1136;-54
2021/10/16 00:26:13;;;;;;;5.33;3.50;;;;;;;4.10;94.68;101515.09;686103;28;4404;-55
2021/10/16 00:26:33;;;;;;;5.07;3.50;;;;;;;4.10;95.00;101509.91;686691;28;1191;-57
2021/10/16 00:26:54;;;;;;;5.57;3.37;;;;;;;4.07;94.20;101505.50;686017;28;1320;-54
2021/10/16 00:27:16;;;;;;;5.28;3.40;;;;;;;4.03;95.00;101508.81;682460;28;3111;-57
2021/10/16 00:27:36;;;;;;;6.15;3.50;;;;;;;3.99;95.45;101508.63;681403;28;2625;-57
2021/10/16 00:27:57;;;;;;;5.07;3.30;;;;;;;3.97;94.83;101508.56;682220;28;1063;-56
2021/10/16 00:28:17;;;;;;;5.32;3.15;;;;;;;3.95;94.90;101507.66;680973;28;1303;-57
2021/10/16 00:28:38;;;;;;;5.50;3.50;;;;;;;3.94;95.01;101508.47;681380;28;1171;-57
2021/10/16 00:29:01;;;;;;;4.80;3.30;;;;;;;3.97;95.25;101511.16;680691;28;4358;-57
2021/10/16 00:29:22;;;;;;;5.18;3.45;;;;;;;3.98;95.48;101505.19;682320;28;1357;-57
2021/10/16 00:29:43;;;;;;;6.05;3.70;;;;;;;4.02;95.15;101508.75;681283;28;1419;-56
2021/10/16 00:30:04;;;;;;;6.10;3.80;;;;;;;4.05;95.04;101501.97;680340;28;1340;-57
2021/10/16 00:30:24;;;;;;;7.10;3.63;;;;;;;4.04;94.38;101501.91;680607;28;2152;-57
2021/10/16 00:30:45;;;;;;;5.90;3.40;;;;;;;4.03;95.11;101507.91;678905;28;3466;-56
2021/10/16 00:31:05;;;;;;;5.83;3.33;;;;;;;4.00;94.26;101503.53;679797;28;1248;-58
2021/10/16 00:31:26;;;;;;;5.87;3.60;;;;;;;4.03;94.88;101507.91;679661;28;1176;-56
2021/10/16 00:31:47;;;;;;;5.93;3.63;;;;;;;4.07;94.86;101505.50;678813;28;1280;-55
2021/10/16 00:32:07;;;;;;;5.38;3.55;;;;;;;4.14;94.75;101501.44;675610;29;5443;-56
2021/10/16 00:32:28;;;;;;;5.30;3.42;;;;;;;4.16;94.14;101504.06;676828;29;1268;-57
2021/10/16 00:32:50;;;;;;;5.80;3.33;;;;;;;4.20;93.61;101508.53;675191;29;1534;-56
2021/10/16 00:33:14;;;;;;;5.80;3.40;;;;;;;4.24;93.46;101505.22;676592;29;1165;-57
2021/10/16 00:33:34;;;;;;;5.15;3.17;;;;;;;4.23;93.82;101500.88;678374;28;4279;-58
2021/10/16 00:33:56;;;;;;;5.50;3.25;;;;;;;4.18;93.32;101507.59;680082;28;1417;-56
2021/10/16 00:34:16;;;;;;;5.70;3.30;;;;;;;4.11;93.21;101503.91;682291;28;1285;-56
2021/10/16 00:34:36;;;;;;;5.10;3.30;;;;;;;4.12;93.62;101507.38;679688;28;1247;-58
2021/10/16 00:34:58;;;;;;;5.03;3.38;;;;;;;4.12;94.16;101507.38;678405;29;4902;-58
2021/10/16 00:35:19;;;;;;;5.28;3.65;;;;;;;4.13;93.63;101503.97;679898;28;1241;-57
2021/10/16 00:35:40;;;;;;;6.28;3.60;;;;;;;4.09;94.25;101503.84;681059;28;1288;-56
2021/10/16 00:36:01;;;;;;;6.23;3.27;;;;;;;4.04;93.98;101497.66;679234;28;1280;-57
2021/10/16 00:36:22;;;;;;;5.63;3.50;;;;;;;4.03;94.51;101503.63;681984;28;1225;-55
2021/10/16 00:36:42;;;;;;;5.53;3.60;;;;;;;4.04;94.75;101501.91;680797;28;2838;-58
2021/10/16 00:37:03;;;;;;;5.90;3.40;;;;;;;4.04;94.28;101496.75;679073;29;1435;-55
2021/10/16 00:37:24;;;;;;;5.68;3.20;;;;;;;4.02;94.51;101507.03;676113;29;1375;-53
2021/10/16 00:37:45;;;;;;;5.88;3.20;;;;;;;4.00;94.77;101505.22;677262;29;1102;-53
2021/10/16 00:38:06;;;;;;;5.18;3.35;;;;;;;3.93;94.10;101506.72;677375;29;4684;-56
2021/10/16 00:38:27;;;;;;;5.20;3.50;;;;;;;3.83;94.14;101507.22;680358;28;1435;-55
2021/10/16 00:38:47;;;;;;;5.17;3.53;;;;;;;3.79;94.08;101505.34;682278;28;1057;-56
2021/10/16 00:39:07;;;;;;;5.57;3.43;;;;;;;3.77;94.70;101504.38;681298;28;1437;-57
2021/10/16 00:39:28;;;;;;;5.57;3.50;;;;;;;3.74;94.91;101505.19;684725;28;1129;-56
2021/10/16 00:39:48;;;;;;;4.90;3.53;;;;;;;3.77;94.77;101506.97;680075;28;3907;-57
2021/10/16 00:40:10;;;;;;;5.70;3.40;;;;;;;3.79;95.00;101500.16;681752;28;1149;-56
2021/10/16 00:40:30;;;;;;;5.82;3.53;;;;;;;3.75;95.38;101505.22;680844;28;1515;-54
2021/10/16 00:40:50;;;;;;;5.72;3.63;;;;;;;3.74;95.56;101505.19;678800;28;1179;-56
2021/10/16 00:41:12;;;;;;;5.83;3.50;;;;;;;3.72;96.00;101505.13;679235;28;4653;-55
2021/10/16 00:41:33;;;;;;;5.72;3.45;;;;;;;3.68;95.93;101500.66;679434;28;1038;-56
2021/10/16 00:41:53;;;;;;;5.95;3.55;;;;;;;3.65;95.34;101500.53;678943;28;1993;-55
2021/10/16 00:42:13;;;;;;;5.20;3.40;;;;;;;3.65;95.75;101508.28;680337;28;1070;-56
2021/10/16 00:42:48;;;;;;;6.35;3.60;;;;;;;3.61;96.04;101498.66;681438;28;1141;-56
2021/10/16 00:43:09;;;;;;;5.90;3.40;;;;;;;3.64;96.84;101503.97;681324;28;2665;-55
2021/10/16 00:43:29;;;;;;;5.83;3.60;;;;;;;3.65;96.65;101500.53;681521;28;4227;-54
2021/10/16 00:44:12;;;;;;;5.60;3.40;;;;;;;3.74;95.71;101502.59;682640;28;1123;-57
2021/10/16 00:44:32;;;;;;;5.63;3.33;;;;;;;3.81;95.78;101502.00;683446;28;6267;-54
2021/10/16 00:44:52;;;;;;;5.45;3.30;;;;;;;3.79;95.39;101501.03;684071;28;1013;-53
2021/10/16 00:45:14;;;;;;;6.03;3.37;;;;;;;3.82;95.41;101502.84;683013;28;1069;-57
2021/10/16 00:45:35;;;;;;;5.53;3.50;;;;;;;3.84;95.41;101501.22;681924;28;1248;-54
2021/10/16 00:45:55;;;;;;;5.53;3.33;;;;;;;3.89;94.76;101504.84;680905;28;3566;-56
2021/10/16 00:46:16;;;;;;;5.95;3.20;;;;;;;3.97;95.30;101503.41;680264;28;1220;-55
2021/10/16 00:46:36;;;;;;;5.47;3.10;;;;;;;4.04;94.33;101505.41;680249;28;1459;-57
2021/10/16 00:46:58;;;;;;;5.77;3.23;;;;;;;4.02;93.77;101503.59;680480;28;5048;-57
2021/10/16 00:47:19;;;;;;;5.47;3.50;;;;;;;4.01;94.18;101500.09;680291;28;1213;-56
2021/10/16 00:47:39;;;;;;;5.10;3.40;;;;;;;3.97;93.19;101499.94;681737;28;1247;-57
2021/10/16 00:47:59;;;;;;;4.83;3.23;;;;;;;3.88;93.84;101501.38;684503;28;1235;-57
2021/10/16 00:48:20;;;;;;;5.13;3.22;;;;;;;3.83;93.71;101502.91;683586;28;1140;-57
2021/10/16 00:48:40;;;;;;;4.93;3.10;;;;;;;3.82;94.55;101505.44;683679;28;1199;-55
2021/10/16 00:49:00;;;;;;;5.88;3.47;;;;;;;3.79;94.50;101502.75;683350;28;2927;-53
2021/10/16 00:49:25;;;;;;;5.53;3.40;;;;;;;3.85;95.05;101502.97;683987;28;3843;-57
2021/10/16 00:49:45;;;;;;;4.82;3.30;;;;;;;3.86;95.26;101507.31;683850;28;1329;-55
2021/10/16 00:50:06;;;;;;;5.00;3.30;;;;;;;3.88;94.63;101506.56;679507;28;4479;-57
2021/10/16 00:50:26;;;;;;;5.90;3.35;;;;;;;3.88;94.52;101503.97;680620;28;1363;-52
2021/10/16 00:50:47;;;;;;;5.43;3.47;;;;;;;3.93;95.16;101504.13;678439;28;1500;-57
2021/10/16 00:51:07;;;;;;;5.07;3.30;;;;;;;3.88;94.49;101503.09;678826;29;1622;-55
2021/10/16 00:51:28;;;;;;;5.60;3.30;;;;;;;3.86;94.92;101500.47;676964;29;1323;-56
2021/10/16 00:51:48;;;;;;;5.68;3.33;;;;;;;3.83;94.32;101499.44;676970;29;1058;-56
2021/10/16 00:52:09;;;;;;;5.10;3.33;;;;;;;3.80;94.45;101501.94;675752;29;3571;-56
2021/10/16 00:52:29;;;;;;;4.95;3.30;;;;;;;3.77;94.98;101494.94;675397;29;1391;-55
2021/10/16 00:52:50;;;;;;;5.57;3.33;;;;;;;3.67;95.35;101496.31;673567;29;1156;-54
2021/10/16 00:53:12;;;;;;;5.88;3.35;;;;;;;3.63;95.35;101497.03;673986;29;4468;-55
2021/10/16 00:53:34;;;;;;;5.93;3.40;;;;;;;3.64;95.30;101501.38;676194;29;1519;-54
2021/10/16 00:53:55;;;;;;;5.15;3.38;;;;;;;3.60;95.32;101496.91;678654;28;1046;-57
2021/10/16 00:54:15;;;;;;;5.47;3.57;;;;;;;3.57;96.33;101507.13;679348;28;1108;-56
2021/10/16 00:54:36;;;;;;;4.63;3.28;;;;;;;3.49;96.42;101508.53;680906;28;990;-56
2021/10/16 00:54:57;;;;;;;5.32;3.33;;;;;;;3.49;96.20;101503.38;682516;28;1082;-54
2021/10/16 00:55:21;;;;;;;5.40;3.40;;;;;;;3.51;96.27;101506.91;683916;28;3712;-57
2021/10/16 00:55:42;;;;;;;5.13;3.50;;;;;;;3.53;96.47;101505.25;681761;28;1216;-56
2021/10/16 00:56:02;;;;;;;4.80;3.30;;;;;;;3.51;96.05;101506.91;682499;28;4613;-55
2021/10/16 00:56:23;;;;;;;4.60;3.33;;;;;;;3.45;95.67;101509.25;679672;28;1166;-55
2021/10/16 00:56:44;;;;;;;5.13;3.30;;;;;;;3.39;95.40;101507.31;680264;28;1203;-54
2021/10/16 00:57:04;;;;;;;5.38;3.25;;;;;;;3.37;95.43;101503.81;677731;29;1367;-56
2021/10/16 00:57:25;;;;;;;6.15;3.22;;;;;;;3.44;95.52;101505.78;678730;29;1125;-56
2021/10/16 00:57:46;;;;;;;5.50;3.27;;;;;;;3.45;95.88;101509.25;681077;28;1169;-54
2021/10/16 00:58:08;;;;;;;5.60;3.38;;;;;;;3.48;96.12;101505.09;678386;28;1391;-57
2021/10/16 00:58:29;;;;;;;5.20;3.42;;;;;;;3.51;95.78;101501.72;678982;28;5254;-55
2021/10/16 00:58:50;;;;;;;4.90;3.50;;;;;;;3.57;95.96;101502.84;679252;28;1252;-56
2021/10/16 00:59:11;;;;;;;5.07;3.30;;;;;;;3.65;95.96;101497.94;679672;29;5302;-57
2021/10/16 00:59:33;;;;;;;5.57;3.25;;;;;;;3.64;95.79;101506.56;679477;29;1209;-55
2021/10/16 00:59:54;;;;;;;4.53;3.13;;;;;;;3.65;95.81;101505.69;676641;29;1963;-56
2021/10/16 01:00:15;;;;;;;5.00;3.15;;;;;;;3.64;95.65;101497.91;677654;29;1264;-55
2021/10/16 01:00:36;;;;;;;6.03;3.55;;;;;;;3.64;95.56;101503.06;675830;29;1650;-56
2021/10/16 01:00:57;;;;;;;5.85;3.50;;;;;;;3.64;95.75;101505.66;677343;29;1174;-56
2021/10/16 01:01:17;;;;;;;5.35;3.30;;;;;;;3.65;95.35;101504.84;675872;29;3802;-55
2021/10/16 01:01:39;;;;;;;5.17;3.23;;;;;;;3.65;95.67;101505.69;675802;28;3469;-56
2021/10/16 01:01:59;;;;;;;5.53;3.40;;;;;;;3.63;96.03;101501.28;677649;29;5185;-53
2021/10/16 01:02:20;;;;;;;7.47;3.60;;;;;;;3.62;95.96;101503.00;676375;29;1333;-56
2021/10/16 01:02:42;;;;;;;7.65;3.55;;;;;;;3.63;95.45;101504.78;679001;28;1122;-57
2021/10/16 01:03:02;;;;;;;5.47;3.23;;;;;;;3.68;95.66;101510.13;680378;28;1492;-56
2021/10/16 01:03:24;;;;;;;5.22;3.22;;;;;;;3.65;95.11;101503.13;682829;28;1223;-56
2021/10/16 01:03:48;;;;;;;5.70;3.40;;;;;;;3.64;95.25;101505.66;676863;29;1526;-55
2021/10/16 01:04:09;;;;;;;5.03;3.15;;;;;;;3.65;95.74;101504.84;678616;29;1327;-57
2021/10/16 01:04:35;;;;;;;5.18;3.40;;;;;;;3.64;95.94;101500.47;673374;29;3016;-55
2021/10/16 01:05:04;;;;;;;5.03;3.20;;;;;;;3.69;95.20;101507.56;672815;29;5266;-56
2021/10/16 01:05:25;;;;;;;5.43;3.08;;;;;;;3.64;95.12;101503.97;676547;29;1247;-54
2021/10/16 01:05:46;;;;;;;5.20;3.00;;;;;;;3.64;95.73;101503.97;676814;29;1347;-56
2021/10/16 01:06:07;;;;;;;5.30;3.30;;;;;;;3.65;95.21;101505.69;678486;29;1876;-56
2021/10/16 01:06:28;;;;;;;6.25;3.30;;;;;;;3.64;95.43;101503.06;681103;28;1350;-56
2021/10/16 01:06:49;;;;;;;5.90;3.40;;;;;;;3.56;95.61;101507.97;681575;28;1532;-55
2021/10/16 01:07:09;;;;;;;5.35;3.40;;;;;;;3.53;95.13;101503.56;678870;29;937;-58
2021/10/16 01:07:30;;;;;;;6.00;3.50;;;;;;;3.53;95.92;101497.50;675385;29;2096;-52
2021/10/16 01:07:50;;;;;;;5.38;3.42;;;;;;;3.64;95.24;101503.97;675994;29;3991;-56
2021/10/16 01:08:11;;;;;;;5.93;3.30;;;;;;;3.69;94.79;101505.00;678520;29;4536;-54
2021/10/16 01:08:31;;;;;;;5.50;3.20;;;;;;;3.68;95.36;101500.66;676625;29;1266;-56
2021/10/16 01:08:52;;;;;;;5.13;3.15;;;;;;;3.64;94.74;101503.97;678932;28;1202;-55
2021/10/16 01:09:14;;;;;;;6.13;3.33;;;;;;;3.60;95.07;101507.25;681571;28;1176;-54
2021/10/16 01:09:34;;;;;;;5.47;3.35;;;;;;;3.60;94.80;101502.09;684127;28;1228;-56
2021/10/16 01:09:55;;;;;;;6.53;3.30;;;;;;;3.60;95.16;101504.69;684732;28;1192;-54
2021/10/16 01:10:15;;;;;;;5.50;3.20;;;;;;;3.60;94.96;101512.44;682202;28;1271;-54
2021/10/16 01:10:36;;;;;;;5.77;3.30;;;;;;;3.63;94.95;101506.47;681438;28;3867;-57
2021/10/16 01:10:58;;;;;;;5.57;3.58;;;;;;;3.61;95.32;101509.00;680723;28;2493;-56
2021/10/16 01:11:40;;;;;;;5.32;3.55;;;;;;;3.56;95.33;101506.25;682154;28;5132;-55
2021/10/16 01:12:01;;;;;;;5.90;3.40;;;;;;;3.52;95.24;101519.03;679835;28;1292;-56
2021/10/16 01:12:22;;;;;;;5.53;3.15;;;;;;;3.51;95.48;101517.25;679439;28;1221;-55
2021/10/16 01:12:43;;;;;;;6.15;3.50;;;;;;;3.50;95.87;101512.88;681024;28;1293;-55
2021/10/16 01:13:04;;;;;;;6.07;3.95;;;;;;;3.49;95.63;101517.19;681447;28;1074;-57
2021/10/16 01:13:28;;;;;;;5.20;3.30;;;;;;;3.46;96.60;101509.34;677856;29;1190;-57
2021/10/16 01:13:48;;;;;;;5.18;3.47;;;;;;;3.40;96.19;101515.13;679655;28;1981;-56
2021/10/16 01:14:11;;;;;;;5.53;3.05;;;;;;;3.39;96.26;101504.72;682719;28;4541;-56
2021/10/16 01:14:31;;;;;;;5.15;3.13;;;;;;;3.33;96.19;101513.13;681931;28;1694;-56
2021/10/16 01:14:58;;;;;;;6.10;3.50;;;;;;;3.28;96.35;101509.50;679433;28;2115;-55
2021/10/16 01:15:20;;;;;;;6.00;3.58;;;;;;;3.27;96.72;101512.00;676387;29;1504;-59
2021/10/16 01:15:41;;;;;;;6.80;3.63;;;;;;;3.34;96.87;101508.84;677879;29;1395;-57
2021/10/16 01:16:02;;;;;;;5.45;3.47;;;;;;;3.44;96.46;101510.09;679907;28;1156;-55
2021/10/16 01:16:22;;;;;;;5.43;3.17;;;;;;;3.53;95.57;101520.75;679857;28;1333;-54
2021/10/16 01:16:44;;;;;;;6.53;3.57;;;;;;;3.48;95.22;101511.97;680953;28;1216;-56
2021/10/16 01:17:05;;;;;;;6.45;3.38;;;;;;;3.37;95.62;101512.41;681555;28;4917;-53
2021/10/16 01:17:26;;;;;;;7.47;3.70;;;;;;;3.47;96.28;101510.19;681733;28;1327;-56
2021/10/16 01:17:48;;;;;;;6.53;3.22;;;;;;;3.60;95.67;101504.69;678856;28;1319;-54
2021/10/16 01:18:08;;;;;;;5.43;3.53;;;;;;;3.58;94.83;101509.75;677778;29;1118;-55
2021/10/16 01:18:29;;;;;;;5.15;3.45;;;;;;;3.60;95.06;101507.25;674959;29;1361;-52
2021/10/16 01:18:50;;;;;;;4.85;3.35;;;;;;;3.59;94.24;101505.50;676558;29;1201;-55
2021/10/16 01:19:13;;;;;;;5.50;3.38;;;;;;;3.59;94.29;101505.50;677297;29;1132;-56
2021/10/16 01:19:36;;;;;;;5.20;3.30;;;;;;;3.62;94.94;101502.16;678957;28;1299;-55
2021/10/16 01:20:07;;;;;;;6.30;3.28;;;;;;;3.62;94.36;101505.59;679911;28;3628;-54
2021/10/16 01:20:29;;;;;;;6.05;3.20;;;;;;;3.62;93.87;101500.44;681355;28;5097;-55
2021/10/16 01:21:15;;;;;;;6.50;3.40;;;;;;;3.55;94.06;101503.63;681063;28;1177;-53
2021/10/16 01:21:41;;;;;;;5.25;3.00;;;;;;;3.63;94.55;101502.19;678088;28;1877;-55
2021/10/16 01:22:02;;;;;;;5.57;3.35;;;;;;;3.68;94.00;101505.84;680810;28;1986;-56
2021/10/16 01:22:24;;;;;;;5.50;3.40;;;;;;;3.65;94.32;101499.66;681153;28;1161;-54
2021/10/16 01:22:45;;;;;;;5.40;3.50;;;;;;;3.63;93.41;101503.88;682071;28;2115;-55
2021/10/16 01:23:05;;;;;;;5.57;3.45;;;;;;;3.68;93.87;101500.66;681266;28;5312;-54
2021/10/16 01:23:26;;;;;;;6.18;3.50;;;;;;;3.69;93.96;101501.53;678794;28;3453;-55
2021/10/16 01:23:48;;;;;;;5.82;3.40;;;;;;;3.66;93.92;101504.03;679978;28;1393;-56
2021/10/16 01:24:10;;;;;;;5.40;3.20;;;;;;;3.55;94.00;101504.47;682669;28;1065;-54
2021/10/16 01:24:30;;;;;;;4.80;3.22;;;;;;;3.54;93.85;101507.00;684088;28;1045;-57
2021/10/16 01:24:52;;;;;;;4.80;3.33;;;;;;;3.56;94.55;101502.81;680803;28;1169;-56
2021/10/16 01:25:15;;;;;;;5.95;3.50;;;;;;;3.60;94.65;101499.50;682266;28;1100;-55
2021/10/16 01:25:36;;;;;;;7.88;3.40;;;;;;;3.61;94.11;101501.25;683870;28;1212;-55
2021/10/16 01:25:58;;;;;;;7.20;3.38;;;;;;;3.62;94.24;101499.56;684328;28;4422;-56
2021/10/16 01:26:19;;;;;;;5.78;3.25;;;;;;;3.65;93.93;101503.13;683846;28;3263;-54
2021/10/16 01:26:41;;;;;;;5.60;3.25;;;;;;;3.60;94.29;101504.69;685990;28;1138;-55
2021/10/16 01:27:02;;;;;;;7.28;3.35;;;;;;;3.55;94.41;101501.03;685889;28;1289;-56
2021/10/16 01:27:23;;;;;;;6.88;3.40;;;;;;;3.56;93.74;101497.63;686294;28;1132;-57
2021/10/16 01:27:44;;;;;;;6.85;3.60;;;;;;;3.55;94.52;101508.78;683953;28;1282;-57
2021/10/16 01:28:05;;;;;;;5.90;3.35;;;;;;;3.52;94.07;101508.69;681453;28;1359;-56
2021/10/16 01:28:27;;;;;;;6.07;3.30;;;;;;;3.50;94.56;101508.63;682109;28;2851;-56
2021/10/16 01:28:48;;;;;;;6.07;3.47;;;;;;;3.48;94.83;101507.66;682305;28;1394;-56
2021/10/16 01:29:10;;;;;;;5.28;3.40;;;;;;;3.52;94.17;101503.50;680980;28;4599;-57
2021/10/16 01:29:31;;;;;;;5.75;3.38;;;;;;;3.55;94.69;101507.06;682513;28;2124;-56
2021/10/16 01:29:54;;;;;;;5.50;3.38;;;;;;;3.60;94.58;101507.25;684252;28;1330;-55
2021/10/16 01:30:18;;;;;;;4.43;3.10;;;;;;;3.64;94.53;101503.06;684651;28;1012;-55
2021/10/16 01:30:39;;;;;;;5.30;3.38;;;;;;;3.64;93.89;101503.97;683005;28;1077;-56
2021/10/16 01:30:59;;;;;;;5.90;3.33;;;;;;;3.63;93.93;101502.19;684465;28;1266;-55
2021/10/16 01:31:24;;;;;;;6.25;3.40;;;;;;;3.63;94.45;101507.38;682117;28;951;-56
2021/10/16 01:31:44;;;;;;;5.00;3.30;;;;;;;3.64;94.33;101503.06;679891;28;1141;-54
2021/10/16 01:32:05;;;;;;;6.55;3.30;;;;;;;3.61;94.50;101506.41;680373;28;4684;-56
2021/10/16 01:32:26;;;;;;;5.93;3.20;;;;;;;3.62;94.82;101495.25;681657;28;3532;-55
2021/10/16 01:32:47;;;;;;;4.73;3.10;;;;;;;3.58;94.55;101498.56;684025;28;3508;-55
2021/10/16 01:33:07;;;;;;;8.40;3.60;;;;;;;3.53;94.53;101510.41;683313;28;1463;-53
2021/10/16 01:33:29;;;;;;;7.72;3.63;;;;;;;3.48;95.33;101511.97;682884;28;1001;-53
2021/10/16 01:33:49;;;;;;;7.57;3.60;;;;;;;3.44;95.01;101504.91;685037;28;1003;-56
2021/10/16 01:34:09;;;;;;;5.53;3.23;;;;;;;3.45;95.31;101502.38;681373;28;1166;-55
2021/10/16 01:34:30;;;;;;;5.13;3.20;;;;;;;3.50;95.50;101505.13;681749;28;1101;-55
2021/10/16 01:34:51;;;;;;;5.28;3.05;;;;;;;3.52;94.68;101509.53;680709;28;1168;-52
2021/10/16 01:35:12;;;;;;;5.45;3.03;;;;;;;3.49;94.83;101503.38;683186;28;4359;-57
2021/10/16 01:35:32;;;;;;;6.45;3.38;;;;;;;3.48;94.90;101506.81;683240;28;3791;-55
2021/10/16 01:36:04;;;;;;;7.07;3.30;;;;;;;3.45;95.33;101504.06;683957;28;1219;-54
2021/10/16 01:36:25;;;;;;;5.75;3.38;;;;;;;3.44;95.71;101510.97;683522;28;1302;-54
2021/10/16 01:36:49;;;;;;;6.57;3.60;;;;;;;3.40;95.61;101507.38;682042;28;1153;-56
2021/10/16 01:37:11;;;;;;;5.65;3.65;;;;;;;3.36;96.24;101502.03;681101;28;1384;-55
2021/10/16 01:37:39;;;;;;;5.82;3.45;;;;;;;3.31;95.19;101498.38;680903;28;2376;-56
2021/10/16 01:37:59;;;;;;;7.05;3.60;;;;;;;3.27;95.31;101502.56;677332;29;4859;-53
2021/10/16 01:38:20;;;;;;;7.22;3.65;;;;;;;3.26;95.46;101500.81;680644;28;1398;-54
2021/10/16 01:38:40;;;;;;;8.32;3.58;;;;;;;3.25;95.71;101504.19;677789;28;3350;-56
2021/10/16 01:39:01;;;;;;;7.32;3.45;;;;;;;3.23;95.95;101495.53;678118;28;1234;-53
2021/10/16 01:39:23;;;;;;;5.82;3.47;;;;;;;3.20;95.91;101500.56;676127;29;1359;-57
2021/10/16 01:39:44;;;;;;;5.45;3.50;;;;;;;3.18;95.83;101494.44;676949;29;1400;-55
2021/10/16 01:40:05;;;;;;;5.45;3.38;;;;;;;3.17;96.22;101495.25;674174;29;1300;-53
2021/10/16 01:40:28;;;;;;;5.15;3.38;;;;;;;3.19;96.40;101503.97;675298;29;1888;-54
2021/10/16 01:40:48;;;;;;;5.57;3.35;;;;;;;3.19;96.45;101498.81;675169;29;1358;-54
2021/10/16 01:41:09;;;;;;;6.00;3.30;;;;;;;3.18;96.60;101505.66;674016;29;4998;-56
2021/10/16 01:41:30;;;;;;;6.68;3.72;;;;;;;3.14;96.30;101493.44;675311;29;1905;-54
2021/10/16 01:41:51;;;;;;;5.90;3.50;;;;;;;3.10;96.46;101501.88;675719;29;3886;-55
2021/10/16 01:42:12;;;;;;;6.20;3.40;;;;;;;3.09;97.48;101501.84;679413;28;1258;-55
2021/10/16 01:42:36;;;;;;;5.80;3.80;;;;;;;3.10;97.39;101495.84;678620;28;1509;-55
2021/10/16 01:42:58;;;;;;;5.65;3.58;;;;;;;3.09;96.96;101502.72;675310;29;1517;-56
2021/10/16 01:43:18;;;;;;;6.30;3.60;;;;;;;3.11;97.07;101497.63;678048;28;3764;-53